FW9150 Weather Reports


Display with metric or nautical units.
time (UTC)temp
F
wind
direction
speed
MPH
gust
MPH
rain 1hr
in
rain 24hr
in
rain mn
in
humidity
%
barometer
mb
20220529081021 43 112 0.0 0.0 0.00 0.00 0.00 89 1015.7
20220529080037 43 112 0.0 0.0 0.00 0.00 0.00 90 1015.9
20220529075121 43 112 0.0 0.0 0.00 0.00 0.00 89 1016.1
20220529074120 43 112 0.0 0.0 0.00 0.00 0.00 90 1016.2
20220529073122 44 112 0.0 0.0 0.00 0.00 0.00 90 1016.2
20220529072121 44 112 0.0 0.0 0.00 0.00 0.00 90 1016.2
20220529071219 44 112 0.0 0.0 0.00 0.00 0.00 90 1016.1
20220529070237 44 112 0.0 0.0 0.00 0.00 0.00 89 1016.3
20220529065328 44 112 0.0 0.0 0.00 0.00 0.00 89 1016.4
20220529064328 44 112 0.0 0.0 0.00 0.00 0.00 88 1016.3
20220529063342 44 112 0.0 0.0 0.00 0.00 0.00 88 1016.5
20220529062428 44 112 0.0 0.0 0.00 0.00 0.00 87 1016.6
20220529061445 45 112 0.0 0.0 0.00 0.00 0.00 86 1016.7
20220529060527 45 112 0.0 0.0 0.00 0.00 0.00 85 1016.7
20220529055527 46 112 0.0 0.0 0.00 0.00 0.00 85 1016.5
20220529054626 46 112 0.0 0.0 0.00 0.00 0.00 85 1016.7
20220529053627 47 112 0.0 0.0 0.00 0.00 0.00 85 1016.8
20220529052626 47 112 0.0 0.0 0.00 0.00 0.00 85 1016.8
20220529051628 47 99 0.0 0.0 0.00 0.00 0.00 84 1016.7
20220529050628 47 157 0.0 0.0 0.00 0.00 0.00 84 1016.9
20220529050542 47 157 0.0 0.0 0.00 0.00 0.00 84 1016.9
20220529045528 47 157 0.0 0.0 0.00 0.00 0.00 84 1016.9
20220529044543 47 157 0.0 0.0 0.00 0.00 0.00 84 1016.9
20220529043626 47 157 0.0 0.0 0.00 0.00 0.00 84 1016.8
20220529042626 47 180 0.0 0.0 0.00 0.00 0.00 84 1016.9
20220529041627 47 135 0.0 0.0 0.00 0.00 0.00 83 1016.6
20220529040630 47 135 0.0 0.0 0.00 0.00 0.00 83 1016.7
20220529035626 48 135 0.0 1.0 0.00 0.00 0.00 83 1016.9
20220529034726 48 135 0.0 0.0 0.00 0.00 0.00 82 1016.9
20220529033727 48 135 0.0 0.0 0.00 0.00 0.00 82 1016.9
20220529032745 48 135 0.0 0.0 0.00 0.00 0.00 82 1016.8
20220529031742 48 135 0.0 0.0 0.00 0.00 0.00 82 1017.2
20220529030828 48 45 0.0 0.0 0.00 0.00 0.00 81 1017.3
20220529025829 49 157 0.0 0.0 0.00 0.00 0.00 81 1017.1
20220529023827 49 180 0.0 2.0 0.00 0.00 0.00 80 1017.1
20220529022926 49 135 0.0 0.0 0.00 0.00 0.00 80 1017.1
20220529021945 49 135 0.0 1.0 0.00 0.00 0.00 79 1017.3
20220529020928 49 157 2.0 4.0 0.00 0.00 0.00 78 1017.2
20220529020843 50 165 1.0 2.0 0.00 0.00 0.00 78 1017.1
20220529015846 50 157 0.0 0.0 0.00 0.00 0.00 77 1017.2
20220529014827 50 152 1.0 3.0 0.00 0.00 0.00 77 1017.3
20220529013829 50 157 0.0 0.0 0.00 0.00 0.00 76 1017.3
20220529012828 50 157 0.0 1.0 0.00 0.00 0.00 76 1017.4
20220529011828 50 157 0.0 1.0 0.00 0.00 0.00 75 1017.4
20220529010827 50 180 0.0 1.0 0.00 0.00 0.00 74 1017.4
20220529005842 50 159 0.0 1.0 0.00 0.00 0.00 73 1017.5
20220529004844 51 148 1.0 4.0 0.00 0.00 0.00 72 1017.7
20220529003827 51 169 0.0 3.0 0.00 0.00 0.00 70 1017.7
20220529002827 52 195 1.0 3.0 0.00 0.00 0.00 70 1017.9
20220529001926 52 195 0.0 1.0 0.00 0.00 0.00 68 1017.9
20220529000927 53 157 3.0 4.0 0.00 0.00 0.00 67 1017.9
20220528235928 53 292 0.0 0.0 0.00 0.00 0.00 65 1017.8
20220528234926 54 156 1.0 3.0 0.00 0.00 0.00 62 1017.8
20220528233927 55 201 2.0 4.0 0.00 0.00 0.00 61 1017.7
20220528232942 56 205 2.0 5.0 0.00 0.00 0.00 57 1017.9
20220528232027 56 166 1.0 4.0 0.00 0.00 0.00 53 1017.6
20220528231026 57 238 1.0 4.0 0.00 0.00 0.00 51 1017.9
20220528230126 57 225 1.0 3.0 0.00 0.00 0.00 49 1017.9
20220528225142 57 211 2.0 5.0 0.00 0.00 0.00 48 1017.9
20220528224127 57 217 3.0 6.0 0.00 0.00 0.00 45 1017.9
20220528223128 57 135 3.0 5.0 0.00 0.00 0.00 45 1017.9
20220528222126 58 197 2.0 3.0 0.00 0.00 0.00 43 1018.1
20220528221126 58 152 4.0 8.0 0.00 0.00 0.00 44 1018.1
20220528220144 58 255 0.0 3.0 0.00 0.00 0.00 47 1018.2
20220528215243 58 238 0.0 1.0 0.00 0.00 0.00 47 1018.1
20220528214327 58 180 0.0 1.0 0.00 0.00 0.00 46 1018.0
20220528214227 58 180 0.0 4.0 0.00 0.00 0.00 46 1018.0
20220528213227 59 205 2.0 4.0 0.00 0.00 0.00 46 1018.0
20220528212325 59 182 0.0 2.0 0.00 0.00 0.00 45 1017.9
20220528211328 59 203 0.0 2.0 0.00 0.00 0.00 42 1018.2
20220528210426 59 209 3.0 5.0 0.00 0.00 0.00 40 1018.5
20220528205526 60 268 2.0 3.0 0.00 0.00 0.00 39 1018.5
20220528204542 60 284 1.0 4.0 0.00 0.00 0.00 38 1018.5
20220528203625 60 149 3.0 6.0 0.00 0.00 0.00 36 1018.3
20220528202629 62 191 4.0 6.0 0.00 0.00 0.00 34 1018.6
20220528201643 62 175 3.0 5.0 0.00 0.00 0.00 33 1018.5
20220528200742 61 178 2.0 4.0 0.00 0.00 0.00 34 1018.5
20220528195726 60 234 1.0 5.0 0.00 0.00 0.00 33 1018.6
20220528194744 58 204 3.0 5.0 0.00 0.00 0.00 39 1018.6
20220528193726 58 202 2.0 4.0 0.00 0.00 0.00 41 1018.7
20220528192727 57 176 1.0 4.0 0.00 0.00 0.00 42 1018.7
20220528191742 57 188 4.0 10.0 0.00 0.00 0.00 46 1018.6
20220528190827 57 175 3.0 6.0 0.00 0.00 0.00 48 1018.5
20220528185842 57 162 4.0 5.0 0.00 0.00 0.00 51 1018.4
20220528184845 56 217 2.0 8.0 0.00 0.00 0.00 54 1018.5
20220528183927 56 225 3.0 5.0 0.00 0.00 0.00 54 1018.5
20220528182926 56 176 4.0 7.0 0.00 0.00 0.00 58 1018.5
20220528181927 56 218 3.0 4.0 0.00 0.00 0.00 58 1018.4
20220528181026 56 197 2.0 4.0 0.00 0.00 0.00 61 1018.3
20220528180026 56 237 3.0 4.0 0.00 0.00 0.00 57 1018.3
20220528175041 56 96 1.0 3.0 0.00 0.00 0.00 57 1018.3
20220528174029 56 224 1.0 4.0 0.00 0.00 0.00 55 1018.2
20220528173025 56 202 1.0 2.0 0.00 0.00 0.00 57 1018.2
20220528172026 56 208 1.0 3.0 0.00 0.00 0.00 54 1018.0
20220528171125 56 225 0.0 1.0 0.00 0.00 0.00 53 1018.1
20220528170127 56 173 3.0 5.0 0.00 0.00 0.00 56 1018.0
20220528165126 55 196 1.0 3.0 0.00 0.00 0.00 59 1017.9
20220528164127 55 154 1.0 2.0 0.00 0.00 0.00 58 1018.0
20220528163142 55 175 3.0 4.0 0.00 0.00 0.00 60 1018.1
20220528162143 54 180 1.0 2.0 0.00 0.00 0.00 61 1017.9
20220528161143 54 198 1.0 2.0 0.00 0.00 0.00 62 1017.9
20220528160228 53 180 0.0 0.0 0.00 0.00 0.00 63 1017.9
20220528155230 53 153 2.0 5.0 0.00 0.00 0.00 66 1017.9
20220528154328 52 180 0.0 0.0 0.00 0.00 0.00 65 1017.9
20220528153325 52 225 1.0 2.0 0.00 0.00 0.00 66 1017.8
20220528152328 52 157 0.0 1.0 0.00 0.00 0.00 65 1017.8
20220528151327 51 157 0.0 0.0 0.00 0.00 0.00 64 1017.7
20220528150425 51 166 0.0 0.0 0.00 0.00 0.00 65 1017.9
20220528145427 50 180 0.0 0.0 0.00 0.00 0.00 64 1017.7
20220528144425 50 204 0.0 1.0 0.00 0.00 0.00 67 1017.9
20220528143428 50 179 0.0 3.0 0.00 0.00 0.00 70 1017.9
20220528142426 50 180 0.0 0.0 0.00 0.00 0.00 74 1017.9
20220528141427 50 225 0.0 0.0 0.00 0.00 0.00 72 1017.9
20220528140525 49 180 0.0 0.0 0.00 0.00 0.00 74 1018.0
20220528135526 49 180 0.0 0.0 0.00 0.00 0.00 78 1017.9
20220528134526 49 180 0.0 0.0 0.00 0.00 0.00 80 1017.7
20220528133526 48 180 0.0 0.0 0.00 0.00 0.00 84 1017.8
20220528132543 48 180 0.0 0.0 0.00 0.00 0.00 84 1018.0
20220528131627 48 180 0.0 0.0 0.00 0.00 0.00 82 1018.0
20220528130625 49 180 0.0 0.0 0.00 0.00 0.00 80 1018.1
20220528125718 48 225 0.0 0.0 0.00 0.00 0.00 79 1018.1
20220528124717 48 225 0.0 0.0 0.00 0.00 0.00 82 1018.1
20220528123732 48 22 0.0 0.0 0.00 0.00 0.00 83 1017.9
20220528122818 48 22 0.0 0.0 0.00 0.00 0.00 85 1018.0
20220528121835 48 45 0.0 0.0 0.00 0.00 0.00 85 1018.1
20220528120817 49 157 0.0 0.0 0.00 0.00 0.00 83 1018.2
20220528115818 50 157 0.0 0.0 0.00 0.00 0.00 76 1018.1
20220528114917 50 278 1.0 2.0 0.00 0.00 0.00 81 1018.3
20220528114016 49 270 0.0 0.0 0.00 0.00 0.00 83 1018.0
20220528113018 49 180 0.0 0.0 0.00 0.00 0.00 83 1017.9
20220528112116 49 180 0.0 0.0 0.00 0.00 0.00 83 1017.9
20220528111118 49 180 0.0 0.0 0.00 0.00 0.00 81 1017.7
20220528110117 49 180 0.0 0.0 0.00 0.00 0.00 80 1017.6
20220528105216 49 157 0.0 0.0 0.00 0.00 0.00 78 1017.9
20220528104219 50 157 0.0 0.0 0.00 0.00 0.00 76 1017.9
20220528103233 50 157 0.0 0.0 0.00 0.00 0.00 75 1018.2
20220528102316 50 157 0.0 0.0 0.00 0.00 0.00 73 1018.5
20220528101317 50 157 0.0 0.0 0.00 0.00 0.00 75 1018.7
20220528100317 50 157 0.0 0.0 0.00 0.00 0.00 73 1018.3
20220528095318 50 157 0.0 0.0 0.00 0.00 0.00 71 1018.3
20220528094316 50 157 2.0 3.0 0.00 0.00 0.00 67 1018.4
20220528093333 50 157 0.0 0.0 0.00 0.00 0.00 74 1018.4
20220528092417 50 157 0.0 0.0 0.00 0.00 0.00 73 1018.5
20220528091516 50 157 0.0 0.0 0.00 0.00 0.00 77 1018.6
20220528090517 49 157 0.0 0.0 0.00 0.00 0.00 76 1018.7
20220528085517 49 157 0.0 0.0 0.00 0.00 0.00 75 1018.8
20220528084519 49 157 0.0 0.0 0.00 0.00 0.00 77 1019.0
20220528083616 49 157 0.0 0.0 0.00 0.00 0.00 76 1019.2
20220528082616 49 157 0.0 0.0 0.00 0.00 0.00 76 1019.1